<?xml version="1.0" encoding="UTF-8" standalone="no" ?>
<gpx xmlns="http://www.topografix.com/GPX/1/1" xmlns:xsi="http://www.w3.org/2001/XMLSchema-instance" xsi:schemaLocation="http://www.topografix.com/GPX/1/1 http://www.topografix.com/GPX/1/1/gpx.xsd" version="1.1" creator="VisuGPX - https://www.visugpx.com">
  <metadata>
    <name>LaBala0316</name>
    <desc><![CDATA[sortie de chantier, remise à l'eau, préparation, tour de Groix
avec Johan et Gauvain]]></desc>
  </metadata>
  <trk>
    <name><![CDATA[Tracé actuel: 29 AVR 2016 12:36]]></name>
    <trkseg>
      <trkpt lat="47.72459" lon="-3.3513">
        <ele>41.95</ele>
        <time>2016-04-29T10:36:41Z</time>
      </trkpt>
      <trkpt lat="47.72461" lon="-3.35113">
        <ele>26.57</ele>
        <time>2016-04-29T10:36:58Z</time>
      </trkpt>
      <trkpt lat="47.72477" lon="-3.35109">
        <ele>9.27</ele>
        <time>2016-04-29T10:37:16Z</time>
      </trkpt>
      <trkpt lat="47.72478" lon="-3.35108">
        <ele>7.35</ele>
        <time>2016-04-29T10:37:32Z</time>
      </trkpt>
      <trkpt lat="47.7248" lon="-3.35111">
        <ele>7.35</ele>
        <time>2016-04-29T10:37:45Z</time>
      </trkpt>
      <trkpt lat="47.72479" lon="-3.35112">
        <ele>8.31</ele>
        <time>2016-04-29T10:37:59Z</time>
      </trkpt>
      <trkpt lat="47.72477" lon="-3.35112">
        <ele>7.35</ele>
        <time>2016-04-29T10:38:09Z</time>
      </trkpt>
      <trkpt lat="47.72477" lon="-3.35114">
        <ele>5.91</ele>
        <time>2016-04-29T10:38:24Z</time>
      </trkpt>
      <trkpt lat="47.7248" lon="-3.35118">
        <ele>4.94</ele>
        <time>2016-04-29T10:38:37Z</time>
      </trkpt>
      <trkpt lat="47.72481" lon="-3.35119">
        <ele>3.98</ele>
        <time>2016-04-29T10:39:00Z</time>
      </trkpt>
      <trkpt lat="47.7248" lon="-3.3512">
        <ele>2.54</ele>
        <time>2016-04-29T10:39:14Z</time>
      </trkpt>
      <trkpt lat="47.7248" lon="-3.3512">
        <ele>2.06</ele>
        <time>2016-04-29T10:39:26Z</time>
      </trkpt>
      <trkpt lat="47.7248" lon="-3.3512">
        <ele>2.54</ele>
        <time>2016-04-29T10:39:45Z</time>
      </trkpt>
      <trkpt lat="47.7248" lon="-3.35119">
        <ele>2.54</ele>
        <time>2016-04-29T10:39:59Z</time>
      </trkpt>
      <trkpt lat="47.72481" lon="-3.3512">
        <ele>2.54</ele>
        <time>2016-04-29T10:40:15Z</time>
      </trkpt>
      <trkpt lat="47.7248" lon="-3.3512">
        <ele>2.54</ele>
        <time>2016-04-29T10:40:30Z</time>
      </trkpt>
      <trkpt lat="47.7248" lon="-3.35119">
        <ele>2.06</ele>
        <time>2016-04-29T10:40:45Z</time>
      </trkpt>
      <trkpt lat="47.72479" lon="-3.35117">
        <ele>1.58</ele>
        <time>2016-04-29T10:41:12Z</time>
      </trkpt>
      <trkpt lat="47.72479" lon="-3.35117">
        <ele>1.1</ele>
        <time>2016-04-29T10:41:33Z</time>
      </trkpt>
      <trkpt lat="47.72479" lon="-3.35116">
        <ele>0.62</ele>
        <time>2016-04-29T10:41:58Z</time>
      </trkpt>
      <trkpt lat="47.72478" lon="-3.35116">
        <ele>0.14</ele>
        <time>2016-04-29T10:42:29Z</time>
      </trkpt>
      <trkpt lat="47.72477" lon="-3.35115">
        <ele>0.62</ele>
        <time>2016-04-29T10:43:02Z</time>
      </trkpt>
      <trkpt lat="47.72476" lon="-3.35117">
        <ele>0.62</ele>
        <time>2016-04-29T10:43:39Z</time>
      </trkpt>
      <trkpt lat="47.72476" lon="-3.35117">
        <ele>0.14</ele>
        <time>2016-04-29T10:44:07Z</time>
      </trkpt>
      <trkpt lat="47.72477" lon="-3.35117">
        <ele>0.62</ele>
        <time>2016-04-29T10:44:40Z</time>
      </trkpt>
      <trkpt lat="47.72477" lon="-3.35117">
        <ele>0.14</ele>
        <time>2016-04-29T10:45:05Z</time>
      </trkpt>
      <trkpt lat="47.72478" lon="-3.35117">
        <ele>-0.34</ele>
        <time>2016-04-29T10:45:38Z</time>
      </trkpt>
      <trkpt lat="47.72477" lon="-3.35117">
        <ele>-1.3</ele>
        <time>2016-04-29T10:46:09Z</time>
      </trkpt>
      <trkpt lat="47.72478" lon="-3.35117">
        <ele>-1.79</ele>
        <time>2016-04-29T10:46:40Z</time>
      </trkpt>
      <trkpt lat="47.72478" lon="-3.35117">
        <ele>-0.82</ele>
        <time>2016-04-29T10:47:12Z</time>
      </trkpt>
      <trkpt lat="47.72478" lon="-3.35116">
        <ele>-0.82</ele>
        <time>2016-04-29T10:47:37Z</time>
      </trkpt>
      <trkpt lat="47.72478" lon="-3.35115">
        <ele>-1.3</ele>
        <time>2016-04-29T10:48:08Z</time>
      </trkpt>
      <trkpt lat="47.72483" lon="-3.35114">
        <ele>-2.27</ele>
        <time>2016-04-29T10:48:30Z</time>
      </trkpt>
      <trkpt lat="47.72516" lon="-3.3513">
        <ele>-4.67</ele>
        <time>2016-04-29T10:48:52Z</time>
      </trkpt>
      <trkpt lat="47.72559" lon="-3.35173">
        <ele>-4.19</ele>
        <time>2016-04-29T10:49:15Z</time>
      </trkpt>
      <trkpt lat="47.726" lon="-3.35252">
        <ele>-7.55</ele>
        <time>2016-04-29T10:49:32Z</time>
      </trkpt>
      <trkpt lat="47.7266" lon="-3.35391">
        <ele>-7.55</ele>
        <time>2016-04-29T10:49:57Z</time>
      </trkpt>
      <trkpt lat="47.72739" lon="-3.35492">
        <ele>-9.48</ele>
        <time>2016-04-29T10:50:21Z</time>
      </trkpt>
      <trkpt lat="47.72837" lon="-3.3559">
        <ele>-10.44</ele>
        <time>2016-04-29T10:50:50Z</time>
      </trkpt>
      <trkpt lat="47.72908" lon="-3.35686">
        <ele>-11.4</ele>
        <time>2016-04-29T10:51:13Z</time>
      </trkpt>
      <trkpt lat="47.72917" lon="-3.35784">
        <ele>-9.96</ele>
        <time>2016-04-29T10:51:29Z</time>
      </trkpt>
      <trkpt lat="47.729" lon="-3.35909">
        <ele>-9</ele>
        <time>2016-04-29T10:51:48Z</time>
      </trkpt>
      <trkpt lat="47.72857" lon="-3.3601">
        <ele>-9</ele>
        <time>2016-04-29T10:52:06Z</time>
      </trkpt>
      <trkpt lat="47.72771" lon="-3.36159">
        <ele>-6.59</ele>
        <time>2016-04-29T10:52:35Z</time>
      </trkpt>
      <trkpt lat="47.727" lon="-3.36314">
        <ele>-6.11</ele>
        <time>2016-04-29T10:53:03Z</time>
      </trkpt>
      <trkpt lat="47.72666" lon="-3.36435">
        <ele>-4.19</ele>
        <time>2016-04-29T10:53:24Z</time>
      </trkpt>
      <trkpt lat="47.72684" lon="-3.36503">
        <ele>-6.11</ele>
        <time>2016-04-29T10:53:37Z</time>
      </trkpt>
      <trkpt lat="47.72741" lon="-3.36525">
        <ele>-10.44</ele>
        <time>2016-04-29T10:53:54Z</time>
      </trkpt>
      <trkpt lat="47.72795" lon="-3.36554">
        <ele>-9.96</ele>
        <time>2016-04-29T10:54:17Z</time>
      </trkpt>
      <trkpt lat="47.72836" lon="-3.36609">
        <ele>-12.36</ele>
        <time>2016-04-29T10:54:41Z</time>
      </trkpt>
      <trkpt lat="47.72862" lon="-3.3667">
        <ele>-13.32</ele>
        <time>2016-04-29T10:55:07Z</time>
      </trkpt>
      <trkpt lat="47.72881" lon="-3.36712">
        <ele>-13.32</ele>
        <time>2016-04-29T10:55:34Z</time>
      </trkpt>
      <trkpt lat="47.72883" lon="-3.36726">
        <ele>-11.4</ele>
        <time>2016-04-29T10:55:55Z</time>
      </trkpt>
      <trkpt lat="47.72881" lon="-3.36733">
        <ele>0.14</ele>
        <time>2016-04-29T10:56:15Z</time>
      </trkpt>
      <trkpt lat="47.72882" lon="-3.36731">
        <ele>0.62</ele>
        <time>2016-04-29T10:56:18Z</time>
      </trkpt>
      <trkpt lat="47.72887" lon="-3.3673">
        <ele>-0.82</ele>
        <time>2016-04-29T10:56:22Z</time>
      </trkpt>
      <trkpt lat="47.72906" lon="-3.36736">
        <ele>-2.75</ele>
        <time>2016-04-29T10:56:39Z</time>
      </trkpt>
      <trkpt lat="47.72914" lon="-3.36748">
        <ele>-0.34</ele>
        <time>2016-04-29T10:56:53Z</time>
      </trkpt>
      <trkpt lat="47.72912" lon="-3.36758">
        <ele>1.58</ele>
        <time>2016-04-29T10:57:02Z</time>
      </trkpt>
      <trkpt lat="47.72911" lon="-3.36765">
        <ele>2.06</ele>
        <time>2016-04-29T10:57:10Z</time>
      </trkpt>
      <trkpt lat="47.72924" lon="-3.36772">
        <ele>1.58</ele>
        <time>2016-04-29T10:57:27Z</time>
      </trkpt>
      <trkpt lat="47.72931" lon="-3.36775">
        <ele>1.58</ele>
        <time>2016-04-29T10:57:42Z</time>
      </trkpt>
      <trkpt lat="47.72928" lon="-3.36773">
        <ele>1.58</ele>
        <time>2016-04-29T10:57:45Z</time>
      </trkpt>
      <trkpt lat="47.7291" lon="-3.36765">
        <ele>0.62</ele>
        <time>2016-04-29T10:58:01Z</time>
      </trkpt>
      <trkpt lat="47.72899" lon="-3.36761">
        <ele>0.14</ele>
        <time>2016-04-29T10:58:16Z</time>
      </trkpt>
      <trkpt lat="47.72874" lon="-3.36749">
        <ele>1.1</ele>
        <time>2016-04-29T10:58:33Z</time>
      </trkpt>
      <trkpt lat="47.72853" lon="-3.3673">
        <ele>2.06</ele>
        <time>2016-04-29T10:58:51Z</time>
      </trkpt>
      <trkpt lat="47.72843" lon="-3.36714">
        <ele>3.02</ele>
        <time>2016-04-29T10:59:01Z</time>
      </trkpt>
      <trkpt lat="47.72839" lon="-3.36707">
        <ele>3.5</ele>
        <time>2016-04-29T10:59:05Z</time>
      </trkpt>
      <trkpt lat="47.72821" lon="-3.36678">
        <ele>3.5</ele>
        <time>2016-04-29T10:59:23Z</time>
      </trkpt>
      <trkpt lat="47.72804" lon="-3.36654">
        <ele>4.46</ele>
        <time>2016-04-29T10:59:40Z</time>
      </trkpt>
      <trkpt lat="47.72793" lon="-3.36674">
        <ele>3.98</ele>
        <time>2016-04-29T10:59:54Z</time>
      </trkpt>
      <trkpt lat="47.72791" lon="-3.36679">
        <ele>3.5</ele>
        <time>2016-04-29T10:59:58Z</time>
      </trkpt>
      <trkpt lat="47.728" lon="-3.367">
        <ele>2.06</ele>
        <time>2016-04-29T11:00:10Z</time>
      </trkpt>
      <trkpt lat="47.72817" lon="-3.36732">
        <ele>1.1</ele>
        <time>2016-04-29T11:00:30Z</time>
      </trkpt>
      <trkpt lat="47.72832" lon="-3.36759">
        <ele>0.62</ele>
        <time>2016-04-29T11:00:49Z</time>
      </trkpt>
      <trkpt lat="47.72842" lon="-3.3679">
        <ele>-2.27</ele>
        <time>2016-04-29T11:01:09Z</time>
      </trkpt>
      <trkpt lat="47.72842" lon="-3.36807">
        <ele>0.14</ele>
        <time>2016-04-29T11:01:19Z</time>
      </trkpt>
      <trkpt lat="47.72848" lon="-3.36839">
        <ele>2.06</ele>
        <time>2016-04-29T11:01:37Z</time>
      </trkpt>
      <trkpt lat="47.72847" lon="-3.36843">
        <ele>1.58</ele>
        <time>2016-04-29T11:01:40Z</time>
      </trkpt>
      <trkpt lat="47.72845" lon="-3.36873">
        <ele>0.62</ele>
        <time>2016-04-29T11:01:54Z</time>
      </trkpt>
      <trkpt lat="47.72837" lon="-3.36892">
        <ele>-1.79</ele>
        <time>2016-04-29T11:02:10Z</time>
      </trkpt>
      <trkpt lat="47.72819" lon="-3.36916">
        <ele>-1.3</ele>
        <time>2016-04-29T11:02:28Z</time>
      </trkpt>
      <trkpt lat="47.72801" lon="-3.36937">
        <ele>-0.34</ele>
        <time>2016-04-29T11:02:47Z</time>
      </trkpt>
      <trkpt lat="47.72797" lon="-3.36951">
        <ele>1.1</ele>
        <time>2016-04-29T11:03:02Z</time>
      </trkpt>
      <trkpt lat="47.72796" lon="-3.36951">
        <ele>1.58</ele>
        <time>2016-04-29T11:03:11Z</time>
      </trkpt>
      <trkpt lat="47.72801" lon="-3.36948">
        <ele>1.58</ele>
        <time>2016-04-29T11:03:15Z</time>
      </trkpt>
      <trkpt lat="47.72821" lon="-3.36933">
        <ele>2.54</ele>
        <time>2016-04-29T11:03:32Z</time>
      </trkpt>
      <trkpt lat="47.72839" lon="-3.36916">
        <ele>-0.82</ele>
        <time>2016-04-29T11:03:49Z</time>
      </trkpt>
      <trkpt lat="47.72849" lon="-3.36903">
        <ele>-3.71</ele>
        <time>2016-04-29T11:04:00Z</time>
      </trkpt>
      <trkpt lat="47.72857" lon="-3.36893">
        <ele>-4.19</ele>
        <time>2016-04-29T11:04:08Z</time>
      </trkpt>
      <trkpt lat="47.72873" lon="-3.36896">
        <ele>-7.55</ele>
        <time>2016-04-29T11:04:23Z</time>
      </trkpt>
      <trkpt lat="47.72888" lon="-3.3691">
        <ele>-11.88</ele>
        <time>2016-04-29T11:04:37Z</time>
      </trkpt>
      <trkpt lat="47.72891" lon="-3.36911">
        <ele>-11.88</ele>
        <time>2016-04-29T11:04:39Z</time>
      </trkpt>
      <trkpt lat="47.72909" lon="-3.36925">
        <ele>-9</ele>
        <time>2016-04-29T11:04:57Z</time>
      </trkpt>
      <trkpt lat="47.72911" lon="-3.36933">
        <ele>-8.51</ele>
        <time>2016-04-29T11:05:04Z</time>
      </trkpt>
      <trkpt lat="47.72927" lon="-3.36946">
        <ele>-9</ele>
        <time>2016-04-29T11:05:23Z</time>
      </trkpt>
      <trkpt lat="47.7295" lon="-3.36962">
        <ele>-11.4</ele>
        <time>2016-04-29T11:05:47Z</time>
      </trkpt>
      <trkpt lat="47.72966" lon="-3.36984">
        <ele>-13.8</ele>
        <time>2016-04-29T11:06:07Z</time>
      </trkpt>
      <trkpt lat="47.72975" lon="-3.36993">
        <ele>-14.28</ele>
        <time>2016-04-29T11:06:18Z</time>
      </trkpt>
      <trkpt lat="47.72978" lon="-3.36996">
        <ele>-14.28</ele>
        <time>2016-04-29T11:06:21Z</time>
      </trkpt>
      <trkpt lat="47.73007" lon="-3.37005">
        <ele>-9</ele>
        <time>2016-04-29T11:06:31Z</time>
      </trkpt>
      <trkpt lat="47.73014" lon="-3.37014">
        <ele>-4.67</ele>
        <time>2016-04-29T11:06:39Z</time>
      </trkpt>
      <trkpt lat="47.73014" lon="-3.37015">
        <ele>-3.71</ele>
        <time>2016-04-29T11:06:40Z</time>
      </trkpt>
      <trkpt lat="47.73012" lon="-3.37024">
        <ele>-1.79</ele>
        <time>2016-04-29T11:06:47Z</time>
      </trkpt>
      <trkpt lat="47.73011" lon="-3.37037">
        <ele>-1.79</ele>
        <time>2016-04-29T11:07:00Z</time>
      </trkpt>
      <trkpt lat="47.73001" lon="-3.37077">
        <ele>0.14</ele>
        <time>2016-04-29T11:07:22Z</time>
      </trkpt>
      <trkpt lat="47.72988" lon="-3.37107">
        <ele>0.62</ele>
        <time>2016-04-29T11:07:41Z</time>
      </trkpt>
      <trkpt lat="47.72977" lon="-3.37132">
        <ele>-0.34</ele>
        <time>2016-04-29T11:08:00Z</time>
      </trkpt>
      <trkpt lat="47.72977" lon="-3.3714">
        <ele>-1.3</ele>
        <time>2016-04-29T11:08:13Z</time>
      </trkpt>
      <trkpt lat="47.72973" lon="-3.37148">
        <ele>-1.79</ele>
        <time>2016-04-29T11:08:29Z</time>
      </trkpt>
      <trkpt lat="47.7297" lon="-3.37156">
        <ele>0.62</ele>
        <time>2016-04-29T11:08:39Z</time>
      </trkpt>
      <trkpt lat="47.72968" lon="-3.37164">
        <ele>1.58</ele>
        <time>2016-04-29T11:08:49Z</time>
      </trkpt>
      <trkpt lat="47.72966" lon="-3.37166">
        <ele>1.58</ele>
        <time>2016-04-29T11:08:51Z</time>
      </trkpt>
      <trkpt lat="47.7296" lon="-3.37169">
        <ele>-0.82</ele>
        <time>2016-04-29T11:08:57Z</time>
      </trkpt>
      <trkpt lat="47.72958" lon="-3.37172">
        <ele>-1.3</ele>
        <time>2016-04-29T11:08:59Z</time>
      </trkpt>
      <trkpt lat="47.72956" lon="-3.37179">
        <ele>-1.3</ele>
        <time>2016-04-29T11:09:10Z</time>
      </trkpt>
      <trkpt lat="47.72942" lon="-3.37165">
        <ele>1.58</ele>
        <time>2016-04-29T11:09:25Z</time>
      </trkpt>
      <trkpt lat="47.72926" lon="-3.37177">
        <ele>5.91</ele>
        <time>2016-04-29T11:09:41Z</time>
      </trkpt>
      <trkpt lat="47.72917" lon="-3.37187">
        <ele>6.39</ele>
        <time>2016-04-29T11:09:49Z</time>
      </trkpt>
      <trkpt lat="47.72895" lon="-3.37197">
        <ele>7.35</ele>
        <time>2016-04-29T11:10:07Z</time>
      </trkpt>
      <trkpt lat="47.72892" lon="-3.37197">
        <ele>6.87</ele>
        <time>2016-04-29T11:10:10Z</time>
      </trkpt>
      <trkpt lat="47.72884" lon="-3.3718">
        <ele>6.39</ele>
        <time>2016-04-29T11:10:21Z</time>
      </trkpt>
      <trkpt lat="47.72875" lon="-3.37164">
        <ele>5.91</ele>
        <time>2016-04-29T11:10:33Z</time>
      </trkpt>
      <trkpt lat="47.72873" lon="-3.37154">
        <ele>5.91</ele>
        <time>2016-04-29T11:10:42Z</time>
      </trkpt>
      <trkpt lat="47.72868" lon="-3.37149">
        <ele>4.94</ele>
        <time>2016-04-29T11:10:51Z</time>
      </trkpt>
      <trkpt lat="47.72858" lon="-3.37161">
        <ele>1.1</ele>
        <time>2016-04-29T11:11:04Z</time>
      </trkpt>
      <trkpt lat="47.72843" lon="-3.37181">
        <ele>-2.75</ele>
        <time>2016-04-29T11:11:19Z</time>
      </trkpt>
      <trkpt lat="47.72834" lon="-3.37194">
        <ele>-1.79</ele>
        <time>2016-04-29T11:11:32Z</time>
      </trkpt>
      <trkpt lat="47.72832" lon="-3.37198">
        <ele>-0.34</ele>
        <time>2016-04-29T11:11:45Z</time>
      </trkpt>
      <trkpt lat="47.7282" lon="-3.37211">
        <ele>0.62</ele>
        <time>2016-04-29T11:11:59Z</time>
      </trkpt>
      <trkpt lat="47.72808" lon="-3.3723">
        <ele>0.14</ele>
        <time>2016-04-29T11:12:15Z</time>
      </trkpt>
      <trkpt lat="47.72793" lon="-3.37252">
        <ele>-0.82</ele>
        <time>2016-04-29T11:12:34Z</time>
      </trkpt>
      <trkpt lat="47.72783" lon="-3.37266">
        <ele>-0.34</ele>
        <time>2016-04-29T11:12:48Z</time>
      </trkpt>
      <trkpt lat="47.72777" lon="-3.37266">
        <ele>0.62</ele>
        <time>2016-04-29T11:12:56Z</time>
      </trkpt>
      <trkpt lat="47.72765" lon="-3.37249">
        <ele>1.58</ele>
        <time>2016-04-29T11:13:12Z</time>
      </trkpt>
      <trkpt lat="47.72764" lon="-3.37248">
        <ele>1.58</ele>
        <time>2016-04-29T11:13:13Z</time>
      </trkpt>
      <trkpt lat="47.7276" lon="-3.3724">
        <ele>2.06</ele>
        <time>2016-04-29T11:13:25Z</time>
      </trkpt>
      <trkpt lat="47.72758" lon="-3.37236">
        <ele>2.54</ele>
        <time>2016-04-29T11:13:29Z</time>
      </trkpt>
      <trkpt lat="47.72753" lon="-3.37228">
        <ele>3.02</ele>
        <time>2016-04-29T11:13:38Z</time>
      </trkpt>
      <trkpt lat="47.72742" lon="-3.37213">
        <ele>1.58</ele>
        <time>2016-04-29T11:13:53Z</time>
      </trkpt>
      <trkpt lat="47.7273" lon="-3.37194">
        <ele>2.06</ele>
        <time>2016-04-29T11:14:10Z</time>
      </trkpt>
      <trkpt lat="47.72729" lon="-3.37192">
        <ele>2.06</ele>
        <time>2016-04-29T11:14:13Z</time>
      </trkpt>
      <trkpt lat="47.72726" lon="-3.37189">
        <ele>2.06</ele>
        <time>2016-04-29T11:14:16Z</time>
      </trkpt>
      <trkpt lat="47.72719" lon="-3.37174">
        <ele>3.02</ele>
        <time>2016-04-29T11:14:30Z</time>
      </trkpt>
      <trkpt lat="47.72717" lon="-3.37171">
        <ele>3.02</ele>
        <time>2016-04-29T11:14:33Z</time>
      </trkpt>
      <trkpt lat="47.72706" lon="-3.37156">
        <ele>2.54</ele>
        <time>2016-04-29T11:14:48Z</time>
      </trkpt>
      <trkpt lat="47.72705" lon="-3.37148">
        <ele>0.62</ele>
        <time>2016-04-29T11:15:00Z</time>
      </trkpt>
      <trkpt lat="47.72706" lon="-3.37148">
        <ele>1.1</ele>
        <time>2016-04-29T11:15:15Z</time>
      </trkpt>
      <trkpt lat="47.72706" lon="-3.37148">
        <ele>1.58</ele>
        <time>2016-04-29T11:15:27Z</time>
      </trkpt>
      <trkpt lat="47.727" lon="-3.37141">
        <ele>1.58</ele>
        <time>2016-04-29T11:15:39Z</time>
      </trkpt>
      <trkpt lat="47.72699" lon="-3.37139">
        <ele>1.58</ele>
        <time>2016-04-29T11:15:52Z</time>
      </trkpt>
      <trkpt lat="47.72707" lon="-3.37151">
        <ele>2.54</ele>
        <time>2016-04-29T11:16:06Z</time>
      </trkpt>
      <trkpt lat="47.72695" lon="-3.37133">
        <ele>1.58</ele>
        <time>2016-04-29T11:16:21Z</time>
      </trkpt>
      <trkpt lat="47.72685" lon="-3.37114">
        <ele>1.1</ele>
        <time>2016-04-29T11:16:35Z</time>
      </trkpt>
      <trkpt lat="47.72676" lon="-3.37104">
        <ele>1.1</ele>
        <time>2016-04-29T11:16:48Z</time>
      </trkpt>
      <trkpt lat="47.72686" lon="-3.37114">
        <ele>0.14</ele>
        <time>2016-04-29T11:17:06Z</time>
      </trkpt>
      <trkpt lat="47.72688" lon="-3.37117">
        <ele>1.1</ele>
        <time>2016-04-29T11:17:19Z</time>
      </trkpt>
      <trkpt lat="47.72698" lon="-3.37135">
        <ele>1.1</ele>
        <time>2016-04-29T11:17:33Z</time>
      </trkpt>
      <trkpt lat="47.7271" lon="-3.37155">
        <ele>1.58</ele>
        <time>2016-04-29T11:17:50Z</time>
      </trkpt>
      <trkpt lat="47.72717" lon="-3.37165">
        <ele>3.02</ele>
        <time>2016-04-29T11:18:04Z</time>
      </trkpt>
      <trkpt lat="47.7272" lon="-3.37168">
        <ele>3.5</ele>
        <time>2016-04-29T11:18:15Z</time>
      </trkpt>
      <trkpt lat="47.72726" lon="-3.37183">
        <ele>2.54</ele>
        <time>2016-04-29T11:18:30Z</time>
      </trkpt>
      <trkpt lat="47.72728" lon="-3.37186">
        <ele>2.54</ele>
        <time>2016-04-29T11:18:37Z</time>
      </trkpt>
      <trkpt lat="47.7273" lon="-3.37187">
        <ele>2.54</ele>
        <time>2016-04-29T11:18:39Z</time>
      </trkpt>
      <trkpt lat="47.72738" lon="-3.37181">
        <ele>3.02</ele>
        <time>2016-04-29T11:18:56Z</time>
      </trkpt>
      <trkpt lat="47.72739" lon="-3.37182">
        <ele>3.5</ele>
        <time>2016-04-29T11:19:20Z</time>
      </trkpt>
      <trkpt lat="47.72735" lon="-3.37189">
        <ele>2.54</ele>
        <time>2016-04-29T11:19:41Z</time>
      </trkpt>
      <trkpt lat="47.72738" lon="-3.37199">
        <ele>2.54</ele>
        <time>2016-04-29T11:19:49Z</time>
      </trkpt>
      <trkpt lat="47.7275" lon="-3.37221">
        <ele>1.58</ele>
        <time>2016-04-29T11:20:06Z</time>
      </trkpt>
      <trkpt lat="47.72764" lon="-3.37245">
        <ele>2.06</ele>
        <time>2016-04-29T11:20:23Z</time>
      </trkpt>
      <trkpt lat="47.72777" lon="-3.37263">
        <ele>0.62</ele>
        <time>2016-04-29T11:20:38Z</time>
      </trkpt>
      <trkpt lat="47.72781" lon="-3.3726">
        <ele>-0.34</ele>
        <time>2016-04-29T11:20:42Z</time>
      </trkpt>
      <trkpt lat="47.72799" lon="-3.37242">
        <ele>-1.3</ele>
        <time>2016-04-29T11:20:59Z</time>
      </trkpt>
      <trkpt lat="47.72814" lon="-3.37224">
        <ele>-5.15</ele>
        <time>2016-04-29T11:21:15Z</time>
      </trkpt>
      <trkpt lat="47.72828" lon="-3.37199">
        <ele>-4.67</ele>
        <time>2016-04-29T11:21:31Z</time>
      </trkpt>
      <trkpt lat="47.7284" lon="-3.37182">
        <ele>-2.27</ele>
        <time>2016-04-29T11:21:46Z</time>
      </trkpt>
      <trkpt lat="47.72845" lon="-3.37175">
        <ele>-2.27</ele>
        <time>2016-04-29T11:21:53Z</time>
      </trkpt>
      <trkpt lat="47.72856" lon="-3.3716">
        <ele>-1.3</ele>
        <time>2016-04-29T11:22:06Z</time>
      </trkpt>
      <trkpt lat="47.72862" lon="-3.37153">
        <ele>-0.82</ele>
        <time>2016-04-29T11:22:13Z</time>
      </trkpt>
      <trkpt lat="47.72866" lon="-3.37147">
        <ele>0.14</ele>
        <time>2016-04-29T11:22:18Z</time>
      </trkpt>
      <trkpt lat="47.72874" lon="-3.37146">
        <ele>1.1</ele>
        <time>2016-04-29T11:22:24Z</time>
      </trkpt>
      <trkpt lat="47.72879" lon="-3.37151">
        <ele>2.06</ele>
        <time>2016-04-29T11:22:30Z</time>
      </trkpt>
      <trkpt lat="47.72894" lon="-3.37168">
        <ele>2.54</ele>
        <time>2016-04-29T11:22:46Z</time>
      </trkpt>
      <trkpt lat="47.72898" lon="-3.37165">
        <ele>2.54</ele>
        <time>2016-04-29T11:22:50Z</time>
      </trkpt>
      <trkpt lat="47.72919" lon="-3.37157">
        <ele>1.1</ele>
        <time>2016-04-29T11:23:05Z</time>
      </trkpt>
      <trkpt lat="47.72931" lon="-3.37158">
        <ele>-0.34</ele>
        <time>2016-04-29T11:23:17Z</time>
      </trkpt>
      <trkpt lat="47.7295" lon="-3.37165">
        <ele>-2.75</ele>
        <time>2016-04-29T11:23:34Z</time>
      </trkpt>
      <trkpt lat="47.72956" lon="-3.37161">
        <ele>-7.55</ele>
        <time>2016-04-29T11:23:45Z</time>
      </trkpt>
      <trkpt lat="47.72966" lon="-3.37143">
        <ele>-10.44</ele>
        <time>2016-04-29T11:24:00Z</time>
      </trkpt>
      <trkpt lat="47.72982" lon="-3.37119">
        <ele>-7.55</ele>
        <time>2016-04-29T11:24:18Z</time>
      </trkpt>
      <trkpt lat="47.73006" lon="-3.37138">
        <ele>-4.67</ele>
        <time>2016-04-29T11:24:37Z</time>
      </trkpt>
      <trkpt lat="47.73026" lon="-3.37158">
        <ele>-3.23</ele>
        <time>2016-04-29T11:24:56Z</time>
      </trkpt>
      <trkpt lat="47.7303" lon="-3.37187">
        <ele>-0.82</ele>
        <time>2016-04-29T11:25:14Z</time>
      </trkpt>
      <trkpt lat="47.7303" lon="-3.37192">
        <ele>3.5</ele>
        <time>2016-04-29T11:25:27Z</time>
      </trkpt>
      <trkpt lat="47.73029" lon="-3.37189">
        <ele>3.98</ele>
        <time>2016-04-29T11:25:29Z</time>
      </trkpt>
      <trkpt lat="47.73027" lon="-3.37175">
        <ele>7.35</ele>
        <time>2016-04-29T11:25:45Z</time>
      </trkpt>
      <trkpt lat="47.7303" lon="-3.37166">
        <ele>7.35</ele>
        <time>2016-04-29T11:25:54Z</time>
      </trkpt>
      <trkpt lat="47.73025" lon="-3.37154">
        <ele>6.87</ele>
        <time>2016-04-29T11:26:03Z</time>
      </trkpt>
      <trkpt lat="47.73" lon="-3.37135">
        <ele>8.79</ele>
        <time>2016-04-29T11:26:25Z</time>
      </trkpt>
      <trkpt lat="47.72989" lon="-3.37126">
        <ele>7.83</ele>
        <time>2016-04-29T11:26:36Z</time>
      </trkpt>
      <trkpt lat="47.72976" lon="-3.37146">
        <ele>5.91</ele>
        <time>2016-04-29T11:26:53Z</time>
      </trkpt>
      <trkpt lat="47.72968" lon="-3.37165">
        <ele>5.42</ele>
        <time>2016-04-29T11:27:08Z</time>
      </trkpt>
      <trkpt lat="47.72967" lon="-3.37167">
        <ele>5.42</ele>
        <time>2016-04-29T11:27:10Z</time>
      </trkpt>
      <trkpt lat="47.72961" lon="-3.37175">
        <ele>3.98</ele>
        <time>2016-04-29T11:27:18Z</time>
      </trkpt>
      <trkpt lat="47.7296" lon="-3.37184">
        <ele>0.62</ele>
        <time>2016-04-29T11:27:29Z</time>
      </trkpt>
      <trkpt lat="47.72972" lon="-3.37211">
        <ele>2.06</ele>
        <time>2016-04-29T11:27:46Z</time>
      </trkpt>
      <trkpt lat="47.72991" lon="-3.37224">
        <ele>3.98</ele>
        <time>2016-04-29T11:28:04Z</time>
      </trkpt>
      <trkpt lat="47.73004" lon="-3.37234">
        <ele>3.5</ele>
        <time>2016-04-29T11:28:20Z</time>
      </trkpt>
      <trkpt lat="47.73007" lon="-3.37232">
        <ele>2.54</ele>
        <time>2016-04-29T11:28:23Z</time>
      </trkpt>
      <trkpt lat="47.73008" lon="-3.3723">
        <ele>1.58</ele>
        <time>2016-04-29T11:28:25Z</time>
      </trkpt>
      <trkpt lat="47.73011" lon="-3.37229">
        <ele>0.14</ele>
        <time>2016-04-29T11:28:28Z</time>
      </trkpt>
      <trkpt lat="47.73013" lon="-3.3723">
        <ele>-0.82</ele>
        <time>2016-04-29T11:28:30Z</time>
      </trkpt>
      <trkpt lat="47.7302" lon="-3.37226">
        <ele>-3.71</ele>
        <time>2016-04-29T11:28:42Z</time>
      </trkpt>
      <trkpt lat="47.7302" lon="-3.37224">
        <ele>-0.34</ele>
        <time>2016-04-29T11:28:55Z</time>
      </trkpt>
      <trkpt lat="47.73018" lon="-3.37227">
        <ele>1.1</ele>
        <time>2016-04-29T11:28:59Z</time>
      </trkpt>
      <trkpt lat="47.7301" lon="-3.37232">
        <ele>3.02</ele>
        <time>2016-04-29T11:29:07Z</time>
      </trkpt>
      <trkpt lat="47.73019" lon="-3.37258">
        <ele>4.94</ele>
        <time>2016-04-29T11:29:27Z</time>
      </trkpt>
      <trkpt lat="47.73029" lon="-3.37267">
        <ele>4.94</ele>
        <time>2016-04-29T11:29:37Z</time>
      </trkpt>
      <trkpt lat="47.73035" lon="-3.37265">
        <ele>4.46</ele>
        <time>2016-04-29T11:29:49Z</time>
      </trkpt>
      <trkpt lat="47.73037" lon="-3.37265">
        <ele>3.98</ele>
        <time>2016-04-29T11:29:54Z</time>
      </trkpt>
      <trkpt lat="47.73054" lon="-3.37272">
        <ele>0.62</ele>
        <time>2016-04-29T11:30:13Z</time>
      </trkpt>
      <trkpt lat="47.7306" lon="-3.37279">
        <ele>1.1</ele>
        <time>2016-04-29T11:30:18Z</time>
      </trkpt>
      <trkpt lat="47.73073" lon="-3.37292">
        <ele>-1.3</ele>
        <time>2016-04-29T11:30:33Z</time>
      </trkpt>
      <trkpt lat="47.73087" lon="-3.37307">
        <ele>-0.82</ele>
        <time>2016-04-29T11:30:47Z</time>
      </trkpt>
      <trkpt lat="47.73108" lon="-3.37335">
        <ele>3.98</ele>
        <time>2016-04-29T11:31:07Z</time>
      </trkpt>
      <trkpt lat="47.73125" lon="-3.37352">
        <ele>5.42</ele>
        <time>2016-04-29T11:31:25Z</time>
      </trkpt>
      <trkpt lat="47.73141" lon="-3.37367">
        <ele>6.87</ele>
        <time>2016-04-29T11:31:41Z</time>
      </trkpt>
      <trkpt lat="47.73147" lon="-3.37369">
        <ele>7.35</ele>
        <time>2016-04-29T11:31:55Z</time>
      </trkpt>
      <trkpt lat="47.73163" lon="-3.37387">
        <ele>7.83</ele>
        <time>2016-04-29T11:32:12Z</time>
      </trkpt>
      <trkpt lat="47.73189" lon="-3.37405">
        <ele>7.35</ele>
        <time>2016-04-29T11:32:36Z</time>
      </trkpt>
      <trkpt lat="47.73209" lon="-3.37422">
        <ele>6.39</ele>
        <time>2016-04-29T11:32:56Z</time>
      </trkpt>
      <trkpt lat="47.73216" lon="-3.37424">
        <ele>5.91</ele>
        <time>2016-04-29T11:33:06Z</time>
      </trkpt>
      <trkpt lat="47.73227" lon="-3.37435">
        <ele>5.42</ele>
        <time>2016-04-29T11:33:17Z</time>
      </trkpt>
      <trkpt lat="47.73231" lon="-3.37442">
        <ele>4.94</ele>
        <time>2016-04-29T11:33:22Z</time>
      </trkpt>
      <trkpt lat="47.73238" lon="-3.37438">
        <ele>4.46</ele>
        <time>2016-04-29T11:33:29Z</time>
      </trkpt>
      <trkpt lat="47.73239" lon="-3.37436">
        <ele>4.46</ele>
        <time>2016-04-29T11:33:31Z</time>
      </trkpt>
      <trkpt lat="47.73241" lon="-3.37427">
        <ele>1.1</ele>
        <time>2016-04-29T11:33:42Z</time>
      </trkpt>
      <trkpt lat="47.73242" lon="-3.37426">
        <ele>1.58</ele>
        <time>2016-04-29T11:33:50Z</time>
      </trkpt>
      <trkpt lat="47.73242" lon="-3.37432">
        <ele>0.62</ele>
        <time>2016-04-29T11:33:56Z</time>
      </trkpt>
      <trkpt lat="47.73259" lon="-3.37465">
        <ele>0.14</ele>
        <time>2016-04-29T11:34:17Z</time>
      </trkpt>
      <trkpt lat="47.73273" lon="-3.37475">
        <ele>0.14</ele>
        <time>2016-04-29T11:34:29Z</time>
      </trkpt>
      <trkpt lat="47.73286" lon="-3.37474">
        <ele>-0.34</ele>
        <time>2016-04-29T11:34:44Z</time>
      </trkpt>
      <trkpt lat="47.73295" lon="-3.37477">
        <ele>0.14</ele>
        <time>2016-04-29T11:34:52Z</time>
      </trkpt>
      <trkpt lat="47.73305" lon="-3.37476">
        <ele>-0.34</ele>
        <time>2016-04-29T11:35:06Z</time>
      </trkpt>
      <trkpt lat="47.73306" lon="-3.37476">
        <ele>-0.34</ele>
        <time>2016-04-29T11:35:28Z</time>
      </trkpt>
    </trkseg>
  </trk>
</gpx>